COO weather

Cadjehoun Airport
Cotonou, Atlantique, Benin

Public forecast

Using degrees Celsius for public forecast. Weather courtesy of forecast.io.

METAR (pilot weather report)

Retrieved 2019/02/19 23:00 UTC (3 minutes ago):

DBBB 192300Z 21011KT 8000 SCT011 29/26 Q1008 NOSIG

TAF (pilot weather forecast)

Retrieved 2019/02/19 18:30 UTC (5 hours ago):

TAF TAF DBBB 191700Z 1918/2024 22010KT 8000 SCT013 TEMPO 2004/2010 VRB02KT 2000 BR